Terminal Aerodrome Forecast
Issued by NWS Charleston, WV

Home | Current Version | Previous Version | Text Only | Print | Product List | Glossary On
Versions: 1 2 3 4 5 6 7 8 9 10 11 12 13 14 15 16 17 18 19 20 21 22 23 24 25
000
FTUS41 KRLX 221138
TAFCRW
TAF
KCRW 221138Z 2212/2312 20003KT P6SM FEW001 BKN100
     FM221400 22004KT P6SM VCTS SCT035CB BKN080
     FM221900 23005KT P6SM SCT040
     FM230100 17003KT P6SM BKN250
     FM230800 00000KT P6SM BKN025=

USA.gov is the U.S. government's official web portal to all federal, state and local government web resources and services.